createdAt,value
2017-07-09T04:26:48.145Z,4.84
2017-07-09T04:27:50.836Z,4.72
2017-07-09T04:28:53.579Z,4.67
2017-07-09T04:29:56.137Z,4.69
2017-07-09T04:30:58.704Z,4.67
2017-07-09T04:32:01.282Z,4.66
2017-07-09T04:33:03.849Z,4.54
2017-07-09T04:34:06.420Z,4.66
2017-07-09T04:35:09.070Z,4.66
2017-07-09T04:36:11.555Z,4.65
2017-07-09T04:37:14.223Z,4.60
2017-07-09T04:38:16.782Z,4.66
2017-07-09T04:39:19.357Z,4.54
2017-07-09T04:40:21.990Z,4.66
2017-07-09T04:41:24.600Z,4.65
2017-07-09T04:42:27.197Z,4.58
2017-07-09T04:43:29.803Z,4.58
2017-07-09T04:44:32.447Z,4.52
2017-07-09T04:45:35.057Z,4.51
2017-07-09T04:46:37.521Z,4.51
2017-07-09T04:47:40.061Z,4.48
2017-07-09T04:48:42.694Z,4.58
2017-07-09T04:49:45.405Z,4.50
2017-07-09T04:50:47.932Z,4.52
2017-07-09T04:51:50.650Z,4.52
2017-07-09T04:52:53.151Z,4.45
2017-07-09T04:53:55.737Z,4.54
2017-07-09T04:54:58.398Z,4.54
2017-07-09T04:56:01.051Z,4.47
2017-07-09T04:57:03.750Z,4.50
2017-07-09T04:58:06.452Z,4.52
2017-07-09T04:59:09.017Z,4.54
2017-07-09T05:00:14.466Z,4.47
2017-07-09T05:01:22.128Z,4.47
2017-07-09T05:02:27.312Z,4.47
2017-07-09T05:03:29.985Z,4.48
2017-07-09T05:04:32.647Z,4.48
2017-07-09T05:05:35.353Z,4.48
2017-07-09T05:06:38.035Z,4.48
2017-07-09T05:07:40.596Z,4.50
2017-07-09T05:08:43.179Z,4.44
2017-07-09T05:09:45.745Z,4.47
2017-07-09T05:10:48.264Z,4.40
2017-07-09T05:11:50.847Z,4.47
2017-07-09T05:12:53.430Z,4.40
2017-07-09T05:13:55.996Z,4.47
2017-07-09T05:14:58.575Z,4.40
2017-07-09T05:16:01.123Z,4.40
2017-07-09T05:17:03.694Z,4.45
2017-07-09T05:18:06.222Z,4.47
2017-07-09T05:19:12.049Z,4.41
2017-07-09T05:20:14.628Z,4.44
2017-07-09T05:21:17.190Z,4.45
2017-07-09T05:22:19.784Z,4.40
2017-07-09T05:23:22.369Z,4.44
2017-07-09T05:24:24.931Z,4.41
2017-07-09T05:25:27.599Z,4.50
2017-07-09T05:26:30.273Z,4.48
2017-07-09T05:27:32.940Z,4.45
2017-07-09T05:28:35.447Z,4.51
2017-07-09T05:29:38.070Z,4.42
2017-07-09T05:30:40.649Z,4.52
2017-07-09T05:31:43.311Z,4.54
2017-07-09T05:32:45.880Z,4.52
2017-07-09T05:33:48.447Z,4.47
2017-07-09T05:34:51.031Z,4.44
2017-07-09T05:35:53.683Z,4.37
2017-07-09T05:36:56.249Z,4.44
2017-07-09T05:37:58.883Z,4.37
2017-07-09T05:39:01.459Z,4.32
2017-07-09T05:40:04.079Z,4.29
2017-07-09T05:41:06.779Z,4.34
2017-07-09T05:42:09.354Z,4.27
2017-07-09T05:43:11.921Z,4.33
2017-07-09T05:44:14.480Z,4.24
2017-07-09T05:45:17.156Z,4.34
2017-07-09T05:46:19.830Z,4.41
2017-07-09T05:47:22.530Z,4.40
2017-07-09T05:48:25.212Z,4.37
2017-07-09T05:49:27.896Z,4.33
2017-07-09T05:50:30.664Z,4.36
2017-07-09T05:51:33.341Z,4.36
2017-07-09T05:52:36.023Z,4.36
2017-07-09T05:53:38.477Z,4.33
2017-07-09T05:54:41.054Z,4.37
2017-07-09T05:55:43.570Z,4.37
2017-07-09T05:56:46.633Z,4.23
2017-07-09T05:57:49.145Z,4.27
2017-07-09T05:58:51.662Z,4.29
2017-07-09T05:59:54.130Z,4.30
2017-07-09T06:00:57.644Z,4.30
2017-07-09T06:02:02.046Z,4.30
2017-07-09T06:03:04.618Z,4.30
2017-07-09T06:04:07.209Z,4.27
2017-07-09T06:05:09.869Z,4.27
2017-07-09T06:06:12.386Z,4.16
2017-07-09T06:07:15.065Z,4.14
2017-07-09T06:08:17.734Z,4.23
2017-07-09T06:09:20.335Z,4.18
2017-07-09T06:10:22.910Z,4.14
2017-07-09T06:11:25.525Z,4.22
2017-07-09T06:12:28.103Z,4.15
2017-07-09T06:13:30.694Z,4.22
2017-07-09T06:14:33.360Z,4.14
2017-07-09T06:15:36.037Z,4.22
2017-07-09T06:16:38.695Z,4.18
2017-07-09T06:17:41.352Z,4.27
2017-07-09T06:18:43.915Z,4.14
2017-07-09T06:19:46.488Z,4.20
2017-07-09T06:20:49.056Z,4.20
2017-07-09T06:21:51.747Z,4.14
2017-07-09T06:22:54.219Z,4.15
2017-07-09T06:23:56.800Z,4.15
2017-07-09T06:24:59.322Z,4.11
2017-07-09T06:26:02.017Z,4.09
2017-07-09T06:27:04.701Z,4.18
2017-07-09T06:28:07.366Z,4.15
2017-07-09T06:29:10.023Z,4.24
2017-07-09T06:30:12.751Z,4.18
2017-07-09T06:31:15.367Z,4.24
2017-07-09T06:32:17.969Z,4.22
2017-07-09T06:33:20.447Z,4.15
2017-07-09T06:34:23.073Z,4.29
2017-07-09T06:35:25.735Z,4.26
2017-07-09T06:36:28.209Z,4.29
2017-07-09T06:37:30.706Z,4.23
2017-07-09T06:38:33.266Z,4.24
2017-07-09T06:39:35.840Z,4.18
2017-07-09T06:40:38.502Z,4.16
2017-07-09T06:41:40.968Z,4.22
2017-07-09T06:42:43.672Z,4.32
2017-07-09T06:43:46.405Z,4.23
2017-07-09T06:44:49.086Z,4.27
2017-07-09T06:45:51.786Z,4.23
2017-07-09T06:46:54.450Z,4.30
2017-07-09T06:47:57.076Z,4.22
2017-07-09T06:48:59.589Z,4.18
2017-07-09T06:50:02.153Z,4.14
2017-07-09T06:51:04.778Z,4.33
2017-07-09T06:52:07.241Z,4.30
2017-07-09T06:53:09.812Z,4.23
2017-07-09T06:54:12.570Z,4.23
2017-07-09T06:55:15.031Z,4.20
2017-07-09T06:56:17.726Z,4.20
2017-07-09T06:57:20.328Z,4.16
2017-07-09T06:58:22.923Z,4.22
2017-07-09T06:59:25.580Z,4.18
2017-07-09T07:00:28.133Z,4.08
2017-07-09T07:01:34.353Z,4.09
2017-07-09T07:02:38.228Z,4.11
2017-07-09T07:03:39.745Z,4.16
2017-07-09T07:04:42.408Z,4.24
2017-07-09T07:05:45.105Z,4.20
2017-07-09T07:06:47.777Z,4.16
2017-07-09T07:07:50.336Z,4.22
2017-07-09T07:08:52.905Z,4.20
2017-07-09T07:09:55.484Z,4.20
2017-07-09T07:10:58.111Z,4.24
2017-07-09T07:12:00.698Z,4.23
2017-07-09T07:13:03.373Z,4.20
2017-07-09T07:14:06.084Z,4.22
2017-07-09T07:15:08.739Z,4.23
2017-07-09T07:16:11.399Z,4.29
2017-07-09T07:17:14.023Z,4.20
2017-07-09T07:18:16.544Z,4.30
2017-07-09T07:19:19.135Z,4.20
2017-07-09T07:20:21.826Z,4.24
2017-07-09T07:21:24.292Z,4.16
2017-07-09T07:22:26.815Z,4.23
2017-07-09T07:23:29.333Z,4.20
2017-07-09T07:24:31.814Z,4.22
2017-07-09T07:25:34.339Z,4.24
2017-07-09T07:26:36.906Z,4.22
2017-07-09T07:27:39.437Z,4.20
2017-07-09T07:28:42.019Z,4.26
2017-07-09T07:29:44.580Z,4.23
2017-07-09T07:30:47.100Z,4.22
2017-07-09T07:31:49.689Z,4.24
2017-07-09T07:32:52.204Z,4.26
2017-07-09T07:33:54.728Z,4.30
2017-07-09T07:34:57.304Z,4.33
2017-07-09T07:35:59.889Z,4.40
2017-07-09T07:37:02.458Z,4.34
2017-07-09T07:38:05.017Z,4.45
2017-07-09T07:39:07.636Z,4.42
2017-07-09T07:40:10.308Z,4.50
2017-07-09T07:41:12.928Z,4.55
2017-07-09T07:42:15.585Z,4.65
2017-07-09T07:43:18.298Z,4.70
2017-07-09T07:44:20.997Z,4.67
2017-07-09T07:45:23.660Z,4.70
2017-07-09T07:46:26.120Z,4.63
2017-07-09T07:47:28.596Z,4.66
2017-07-09T07:48:31.132Z,4.72
2017-07-09T07:49:33.758Z,4.75
2017-07-09T07:50:36.344Z,4.72
2017-07-09T07:51:38.947Z,4.69
2017-07-09T07:52:41.542Z,4.84
2017-07-09T07:53:44.109Z,4.84
2017-07-09T07:54:46.779Z,4.86
2017-07-09T07:55:49.449Z,4.86
2017-07-09T07:56:52.114Z,4.84
2017-07-09T07:57:54.815Z,4.85
2017-07-09T07:58:57.381Z,4.89
2017-07-09T07:59:59.960Z,4.88
2017-07-09T08:01:07.320Z,4.86
2017-07-09T08:02:11.688Z,4.82
2017-07-09T08:03:13.985Z,4.89
2017-07-09T08:04:16.548Z,4.86
2017-07-09T08:05:19.111Z,4.73
2017-07-09T08:06:21.676Z,4.78
2017-07-09T08:07:24.403Z,4.85
2017-07-09T08:08:27.045Z,4.78
2017-07-09T08:09:29.695Z,4.85
2017-07-09T08:10:32.357Z,4.80
2017-07-09T08:11:34.935Z,4.73
2017-07-09T08:12:37.507Z,4.84
2017-07-09T08:13:40.156Z,4.82
2017-07-09T08:14:42.897Z,4.80
2017-07-09T08:15:45.474Z,4.80
2017-07-09T08:16:48.148Z,4.91
2017-07-09T08:17:50.792Z,4.85
2017-07-09T08:18:53.514Z,4.80
2017-07-09T08:19:56.116Z,4.78
2017-07-09T08:20:58.688Z,4.89
2017-07-09T08:22:01.163Z,4.86
2017-07-09T08:23:03.677Z,4.78
2017-07-09T08:24:06.207Z,4.80
2017-07-09T08:25:08.683Z,4.67
2017-07-09T08:26:11.257Z,4.67
2017-07-09T08:27:13.841Z,4.69
2017-07-09T08:28:16.345Z,4.65
2017-07-09T08:29:18.968Z,4.54
2017-07-09T08:30:21.446Z,4.65
2017-07-09T08:31:24.122Z,4.67
2017-07-09T08:32:26.780Z,4.70
2017-07-09T08:33:29.495Z,4.67
2017-07-09T08:34:32.127Z,4.75
2017-07-09T08:35:34.797Z,4.69
2017-07-09T08:36:37.458Z,4.75
2017-07-09T08:37:40.169Z,4.67
2017-07-09T08:38:42.838Z,4.85
2017-07-09T08:39:45.498Z,4.85
2017-07-09T08:40:48.056Z,4.77
2017-07-09T08:41:50.641Z,4.78
2017-07-09T08:42:53.219Z,4.73
2017-07-09T08:43:55.888Z,4.67
2017-07-09T08:44:58.445Z,4.69
2017-07-09T08:46:01.129Z,4.70
2017-07-09T08:47:03.795Z,4.73
2017-07-09T08:48:06.351Z,4.67
2017-07-09T08:49:08.909Z,4.72
2017-07-09T08:50:11.421Z,4.65
2017-07-09T08:51:13.984Z,4.67
2017-07-09T08:52:16.541Z,4.73
2017-07-09T08:53:19.005Z,4.72
2017-07-09T08:54:21.611Z,4.65
2017-07-09T08:55:24.115Z,4.63
2017-07-09T08:56:26.625Z,4.80
2017-07-09T08:57:29.316Z,4.77
2017-07-09T08:58:31.995Z,4.80
2017-07-09T08:59:34.666Z,4.82
2017-07-09T09:00:40.710Z,4.84
2017-07-09T09:01:46.833Z,4.84
2017-07-09T09:02:49.210Z,4.84
2017-07-09T09:03:51.765Z,4.92
2017-07-09T09:04:54.275Z,5.06
2017-07-09T09:05:56.789Z,5.03
2017-07-09T09:06:59.301Z,5.09
2017-07-09T09:08:01.779Z,5.09
2017-07-09T09:09:04.523Z,5.13
2017-07-09T09:10:07.091Z,5.17
2017-07-09T09:11:09.659Z,5.09
2017-07-09T09:12:12.348Z,5.07
2017-07-09T09:13:14.924Z,5.00
2017-07-09T09:14:17.499Z,5.06
2017-07-09T09:15:20.016Z,4.97
2017-07-09T09:16:22.531Z,5.02
2017-07-09T09:17:25.189Z,5.06
2017-07-09T09:18:27.864Z,5.06
2017-07-09T09:19:30.551Z,5.02
2017-07-09T09:20:33.244Z,5.04
2017-07-09T09:21:35.929Z,4.92
2017-07-09T09:22:38.641Z,5.02
2017-07-09T09:23:41.204Z,4.97
2017-07-09T09:24:43.773Z,4.88
2017-07-09T09:25:46.397Z,4.89
2017-07-09T09:26:49.083Z,4.91
2017-07-09T09:27:51.747Z,4.86
2017-07-09T09:28:54.414Z,4.97
2017-07-09T09:29:57.081Z,4.97
2017-07-09T09:30:59.636Z,5.09
2017-07-09T09:32:02.230Z,5.03
2017-07-09T09:33:04.747Z,5.17
2017-07-09T09:34:07.444Z,5.24
2017-07-09T09:35:09.943Z,5.31
2017-07-09T09:36:12.524Z,5.51
2017-07-09T09:37:14.987Z,5.57
2017-07-09T09:38:17.557Z,5.67
2017-07-09T09:39:20.141Z,5.76
2017-07-09T09:40:22.690Z,5.91
2017-07-09T09:41:25.246Z,6.09
2017-07-09T09:42:27.761Z,6.19
2017-07-09T09:43:30.350Z,6.19
2017-07-09T09:44:32.981Z,6.27
2017-07-09T09:45:35.488Z,6.22
2017-07-09T09:46:38.135Z,6.33
2017-07-09T09:47:40.721Z,6.33
2017-07-09T09:48:43.387Z,6.37
2017-07-09T09:49:46.064Z,6.41
2017-07-09T09:50:48.669Z,6.41
2017-07-09T09:51:51.250Z,6.41
2017-07-09T09:52:53.828Z,6.43
2017-07-09T09:53:56.389Z,6.38
2017-07-09T09:54:59.065Z,6.48
2017-07-09T09:56:01.730Z,6.46
2017-07-09T09:57:04.398Z,6.52
2017-07-09T09:58:07.069Z,6.61
2017-07-09T09:59:09.718Z,6.62
2017-07-09T10:00:15.555Z,6.71
2017-07-09T10:01:21.743Z,6.74
2017-07-09T10:02:25.796Z,6.76
2017-07-09T10:03:28.326Z,6.79
2017-07-09T10:04:30.843Z,6.88
2017-07-09T10:05:33.417Z,6.89
2017-07-09T10:06:36.056Z,6.91
2017-07-09T10:07:38.579Z,7.02
2017-07-09T10:08:41.242Z,7.07
2017-07-09T10:09:43.927Z,7.17
2017-07-09T10:10:46.671Z,7.12
2017-07-09T10:11:49.337Z,7.03
2017-07-09T10:12:52.022Z,6.98
2017-07-09T10:13:54.693Z,6.81
2017-07-09T10:14:57.151Z,6.89
2017-07-09T10:15:59.723Z,6.84
2017-07-09T10:17:02.290Z,6.84
2017-07-09T10:18:04.865Z,6.80
2017-07-09T10:19:09.111Z,6.85
2017-07-09T10:20:11.669Z,6.98
2017-07-09T10:21:14.390Z,7.15
2017-07-09T10:22:17.032Z,7.27
2017-07-09T10:23:19.695Z,7.48
2017-07-09T10:24:22.390Z,7.46
2017-07-09T10:25:25.003Z,7.39
2017-07-09T10:26:27.592Z,7.24
2017-07-09T10:27:30.129Z,7.03
2017-07-09T10:28:32.722Z,7.02
2017-07-09T10:29:35.308Z,6.87
2017-07-09T10:30:37.887Z,6.95
2017-07-09T10:31:40.373Z,6.91
2017-07-09T10:32:43.079Z,7.05
2017-07-09T10:33:45.652Z,7.20
2017-07-09T10:34:48.180Z,7.12
2017-07-09T10:35:50.760Z,7.13
2017-07-09T10:36:53.335Z,7.24
2017-07-09T10:37:55.906Z,7.20
2017-07-09T10:38:58.489Z,7.09
2017-07-09T10:40:01.015Z,7.24
2017-07-09T10:41:03.587Z,7.24
2017-07-09T10:42:06.098Z,7.30
2017-07-09T10:43:08.651Z,7.43
2017-07-09T10:44:11.280Z,7.49
2017-07-09T10:45:14.015Z,7.48
2017-07-09T10:46:16.589Z,7.57
2017-07-09T10:47:19.269Z,7.57
2017-07-09T10:48:21.940Z,7.64
2017-07-09T10:49:24.600Z,7.72
2017-07-09T10:50:27.270Z,7.87
2017-07-09T10:51:29.949Z,7.90
2017-07-09T10:52:32.616Z,8.16
2017-07-09T10:53:35.283Z,8.34
2017-07-09T10:54:37.886Z,8.53
2017-07-09T10:55:40.456Z,8.66
2017-07-09T10:56:43.129Z,8.76
2017-07-09T10:57:45.772Z,8.70
2017-07-09T10:58:48.291Z,8.76
2017-07-09T10:59:50.878Z,8.71
2017-07-09T11:00:55.418Z,8.79
2017-07-09T11:02:02.272Z,8.76
2017-07-09T11:03:04.557Z,8.84
2017-07-09T11:04:07.141Z,8.91
2017-07-09T11:05:09.932Z,8.94
2017-07-09T11:06:13.847Z,8.99
2017-07-09T11:07:20.168Z,9.02
2017-07-09T11:08:23.227Z,9.11
2017-07-09T11:09:25.898Z,9.32
2017-07-09T11:10:28.576Z,9.43
2017-07-09T11:11:31.325Z,9.68
2017-07-09T11:12:33.933Z,9.66
2017-07-09T11:13:39.040Z,9.78
2017-07-09T11:14:43.312Z,9.89
2017-07-09T11:15:46.500Z,9.93
2017-07-09T11:16:49.655Z,10.08
2017-07-09T11:17:52.684Z,10.22
2017-07-09T11:18:55.393Z,10.17
2017-07-09T11:19:57.907Z,10.14
2017-07-09T11:21:00.479Z,10.20
2017-07-09T11:22:03.103Z,10.12
2017-07-09T11:23:05.894Z,10.08
2017-07-09T11:24:08.481Z,10.12
2017-07-09T11:25:11.110Z,10.05
2017-07-09T11:26:13.742Z,10.20
2017-07-09T11:27:16.327Z,10.18
2017-07-09T11:28:19.001Z,10.34
2017-07-09T11:29:21.526Z,10.29
2017-07-09T11:30:24.191Z,10.27
2017-07-09T11:31:26.808Z,10.51
2017-07-09T11:32:29.310Z,10.73
2017-07-09T11:33:32.001Z,11.11
2017-07-09T11:34:34.496Z,11.35
2017-07-09T11:35:37.160Z,11.70
2017-07-09T11:36:39.866Z,11.83
2017-07-09T11:37:42.542Z,12.14
2017-07-09T11:38:45.219Z,12.17
2017-07-09T11:39:47.894Z,12.62
2017-07-09T11:40:50.493Z,12.68
2017-07-09T11:41:53.119Z,12.71
2017-07-09T11:42:55.744Z,12.87
2017-07-09T11:43:58.451Z,13.11
2017-07-09T11:45:01.129Z,13.41
2017-07-09T11:46:03.817Z,13.85
2017-07-09T11:47:06.490Z,14.15
2017-07-09T11:48:09.212Z,14.14
2017-07-09T11:49:11.813Z,13.99
2017-07-09T11:50:14.400Z,13.75
2017-07-09T11:51:17.008Z,13.41
2017-07-09T11:52:19.595Z,13.17
2017-07-09T11:53:22.160Z,13.17
2017-07-09T11:54:24.860Z,13.10
2017-07-09T11:55:27.549Z,13.45
2017-07-09T11:56:30.136Z,13.63
2017-07-09T11:57:32.701Z,13.89
2017-07-09T11:58:35.353Z,14.03
2017-07-09T11:59:37.916Z,14.04
2017-07-09T12:00:42.124Z,14.03
2017-07-09T12:01:49.202Z,13.95
2017-07-09T12:02:51.553Z,13.95
2017-07-09T12:03:54.174Z,14.12
2017-07-09T12:04:56.808Z,14.17
2017-07-09T12:05:59.484Z,14.22
2017-07-09T12:07:02.178Z,14.25
2017-07-09T12:08:04.859Z,14.40
2017-07-09T12:09:07.546Z,14.57
2017-07-09T12:10:10.079Z,14.91
2017-07-09T12:11:13.331Z,14.99
2017-07-09T12:12:15.901Z,14.99
2017-07-09T12:13:18.614Z,14.99
2017-07-09T12:14:21.219Z,15.07
2017-07-09T12:15:23.856Z,15.03
2017-07-09T12:16:27.298Z,15.14
2017-07-09T12:17:29.885Z,15.20
2017-07-09T12:18:32.593Z,15.32
2017-07-09T12:19:35.177Z,15.29
2017-07-09T12:20:37.780Z,15.36
2017-07-09T12:21:40.470Z,15.34
2017-07-09T12:22:43.126Z,15.27
2017-07-09T12:23:45.720Z,14.83
2017-07-09T12:24:48.373Z,14.47
2017-07-09T12:25:50.967Z,14.43
2017-07-09T12:26:53.666Z,14.46
2017-07-09T12:27:56.374Z,14.68
2017-07-09T12:28:59.064Z,14.77
2017-07-09T12:30:01.704Z,14.61
2017-07-09T12:31:04.414Z,14.51
2017-07-09T12:32:07.109Z,14.57
2017-07-09T12:33:09.826Z,14.60
2017-07-09T12:34:12.534Z,14.57
2017-07-09T12:35:15.119Z,14.47
2017-07-09T12:36:17.810Z,14.10
2017-07-09T12:37:20.304Z,13.81
2017-07-09T12:38:22.857Z,13.22
2017-07-09T12:39:25.470Z,12.67
2017-07-09T12:40:27.947Z,12.47
2017-07-09T12:41:30.528Z,12.29
2017-07-09T12:42:33.247Z,12.31
2017-07-09T12:43:35.798Z,12.31
2017-07-09T12:44:38.458Z,12.50
2017-07-09T12:45:41.041Z,12.59
2017-07-09T12:46:43.580Z,12.65
2017-07-09T12:47:46.167Z,12.65
2017-07-09T12:48:48.766Z,12.70
2017-07-09T12:49:51.360Z,12.90
2017-07-09T12:50:53.965Z,13.14
2017-07-09T12:51:56.497Z,13.32
2017-07-09T12:52:59.031Z,13.82
2017-07-09T12:54:01.636Z,14.33
2017-07-09T12:55:04.208Z,14.57
2017-07-09T12:56:06.906Z,14.73
2017-07-09T12:57:09.601Z,14.88
2017-07-09T12:58:12.388Z,14.92
2017-07-09T12:59:15.079Z,15.01
2017-07-09T13:00:20.256Z,14.99
2017-07-09T13:01:22.860Z,15.20
2017-07-09T13:02:25.555Z,15.46
2017-07-09T13:03:28.148Z,16.02
2017-07-09T13:04:30.749Z,16.52
2017-07-09T13:05:33.278Z,17.00
2017-07-09T13:06:35.883Z,17.03
2017-07-09T13:07:38.616Z,17.19
2017-07-09T13:08:41.309Z,17.18
2017-07-09T13:09:43.988Z,17.21
2017-07-09T13:10:46.675Z,17.33
2017-07-09T13:11:49.371Z,17.51
2017-07-09T13:12:51.902Z,17.48
2017-07-09T13:13:55.332Z,17.40
2017-07-09T13:14:57.937Z,17.18
2017-07-09T13:16:00.539Z,17.12
2017-07-09T13:17:03.046Z,17.08
2017-07-09T13:18:05.665Z,17.30
2017-07-09T13:19:10.015Z,17.56
2017-07-09T13:20:12.574Z,17.28
2017-07-09T13:21:15.337Z,17.08
2017-07-09T13:22:18.129Z,17.23
2017-07-09T13:23:20.904Z,17.21
2017-07-09T13:24:23.673Z,17.41
2017-07-09T13:25:26.594Z,17.54
2017-07-09T13:26:29.382Z,17.77
2017-07-09T13:27:32.144Z,17.70
2017-07-09T13:28:34.900Z,17.48
2017-07-09T13:29:37.508Z,17.79
2017-07-09T13:30:40.114Z,17.77
2017-07-09T13:31:42.853Z,17.71
2017-07-09T13:32:45.541Z,17.54
2017-07-09T13:33:48.334Z,17.99
2017-07-09T13:34:51.060Z,18.08
2017-07-09T13:35:53.777Z,17.51
2017-07-09T13:36:56.695Z,16.96
2017-07-09T13:37:59.551Z,16.71
2017-07-09T13:39:02.297Z,16.23
2017-07-09T13:40:04.911Z,15.94
2017-07-09T13:41:07.498Z,16.00
2017-07-09T13:42:10.186Z,15.93
2017-07-09T13:43:12.851Z,15.74
2017-07-09T13:44:15.514Z,15.84
2017-07-09T13:45:18.088Z,16.20
2017-07-09T13:46:20.980Z,16.56
2017-07-09T13:47:23.847Z,16.97
2017-07-09T13:48:26.663Z,17.44
2017-07-09T13:49:30.208Z,17.86
2017-07-09T13:50:32.789Z,17.87
2017-07-09T13:51:35.647Z,17.16
2017-07-09T13:52:38.143Z,16.68
2017-07-09T13:53:40.880Z,16.75
2017-07-09T13:54:44.010Z,16.82
2017-07-09T13:55:48.768Z,17.37
2017-07-09T13:56:51.702Z,17.92
2017-07-09T13:57:54.499Z,18.54
2017-07-09T13:58:57.369Z,18.66
2017-07-09T14:00:00.171Z,18.21
2017-07-09T14:01:05.199Z,17.74
2017-07-09T14:02:11.027Z,17.44
2017-07-09T14:03:14.015Z,17.52
2017-07-09T14:04:17.558Z,17.40
2017-07-09T14:05:22.080Z,17.46
2017-07-09T14:06:24.869Z,17.72
2017-07-09T14:07:27.484Z,17.89
2017-07-09T14:08:30.142Z,18.44
2017-07-09T14:09:32.700Z,18.48
2017-07-09T14:10:35.273Z,18.41
2017-07-09T14:11:38.012Z,18.23
2017-07-09T14:12:40.635Z,17.95
2017-07-09T14:13:43.220Z,17.95
2017-07-09T14:14:45.835Z,17.93
2017-07-09T14:15:48.573Z,17.79
2017-07-09T14:16:51.838Z,17.78
2017-07-09T14:17:56.502Z,17.51
2017-07-09T14:18:59.027Z,17.30
2017-07-09T14:20:01.679Z,17.22
2017-07-09T14:21:04.226Z,17.30
2017-07-09T14:22:06.823Z,17.01
2017-07-09T14:23:09.684Z,16.58
2017-07-09T14:24:12.511Z,16.23
2017-07-09T14:25:15.330Z,16.01
2017-07-09T14:26:18.200Z,16.08
2017-07-09T14:27:21.025Z,16.23
2017-07-09T14:28:23.797Z,16.20
2017-07-09T14:29:26.664Z,16.31
2017-07-09T14:30:29.241Z,16.85
2017-07-09T14:31:32.035Z,17.14
2017-07-09T14:32:34.750Z,17.14
2017-07-09T14:33:37.344Z,17.46
2017-07-09T14:34:39.897Z,18.10
2017-07-09T14:35:42.509Z,17.99
2017-07-09T14:36:45.310Z,17.75
2017-07-09T14:37:48.296Z,17.62
2017-07-09T14:38:51.061Z,17.62
2017-07-09T14:39:53.888Z,17.59
2017-07-09T14:40:56.713Z,17.30
2017-07-09T14:41:59.579Z,17.37
2017-07-09T14:43:02.356Z,17.46
2017-07-09T14:44:05.182Z,17.55
2017-07-09T14:45:07.832Z,17.38
2017-07-09T14:46:10.579Z,17.08
2017-07-09T14:47:13.132Z,16.86
2017-07-09T14:48:15.658Z,16.50
2017-07-09T14:49:18.543Z,16.43
2017-07-09T14:50:21.382Z,16.39
2017-07-09T14:51:24.205Z,16.30
2017-07-09T14:52:27.027Z,16.24
2017-07-09T14:53:29.682Z,16.33
2017-07-09T14:54:32.453Z,16.42
2017-07-09T14:55:35.069Z,16.52
2017-07-09T14:56:37.700Z,16.61
2017-07-09T14:57:40.389Z,16.50
2017-07-09T14:58:42.897Z,16.53
2017-07-09T14:59:45.395Z,16.53
2017-07-09T15:00:49.294Z,16.76
2017-07-09T15:01:56.374Z,16.98
2017-07-09T15:03:02.149Z,17.51
2017-07-09T15:04:04.517Z,17.72
2017-07-09T15:05:07.116Z,17.43
2017-07-09T15:06:09.801Z,17.36
2017-07-09T15:07:12.711Z,17.34
2017-07-09T15:08:15.522Z,17.37
2017-07-09T15:09:18.259Z,17.30
2017-07-09T15:10:21.128Z,17.33
2017-07-09T15:11:24.039Z,17.46
2017-07-09T15:12:26.760Z,17.33
2017-07-09T15:13:29.563Z,17.25
2017-07-09T15:14:32.486Z,17.19
2017-07-09T15:15:35.295Z,17.22
2017-07-09T15:16:38.090Z,17.23
2017-07-09T15:17:40.880Z,17.38
2017-07-09T15:18:43.696Z,17.46
2017-07-09T15:19:46.516Z,17.49
2017-07-09T15:20:49.403Z,17.78
2017-07-09T15:21:52.224Z,17.74
2017-07-09T15:22:54.791Z,17.71
2017-07-09T15:23:57.440Z,17.55
2017-07-09T15:24:59.945Z,17.52
2017-07-09T15:26:02.886Z,17.46
2017-07-09T15:27:05.370Z,17.54
2017-07-09T15:28:07.883Z,17.23
2017-07-09T15:29:10.438Z,17.22
2017-07-09T15:30:13.022Z,17.37
2017-07-09T15:31:15.662Z,17.37
2017-07-09T15:32:18.439Z,17.33
2017-07-09T15:33:21.225Z,17.71
2017-07-09T15:34:24.037Z,17.44
2017-07-09T15:35:26.962Z,17.36
2017-07-09T15:36:29.791Z,17.46
2017-07-09T15:37:32.620Z,17.87
2017-07-09T15:38:35.478Z,17.74
2017-07-09T15:39:38.075Z,17.79
2017-07-09T15:40:41.006Z,17.81
2017-07-09T15:41:43.563Z,17.72
2017-07-09T15:42:46.117Z,17.66
2017-07-09T15:43:48.738Z,17.37
2017-07-09T15:44:52.684Z,17.51
2017-07-09T15:45:55.357Z,17.58
2017-07-09T15:46:57.936Z,17.84
2017-07-09T15:48:00.609Z,17.70
2017-07-09T15:49:03.366Z,17.71
2017-07-09T15:50:07.067Z,17.71
2017-07-09T15:51:09.670Z,17.49
2017-07-09T15:52:13.089Z,17.37
2017-07-09T15:53:15.723Z,17.75
2017-07-09T15:54:20.053Z,17.95
2017-07-09T15:55:22.682Z,18.23
2017-07-09T15:56:27.671Z,18.45
2017-07-09T15:57:30.434Z,18.57
2017-07-09T15:58:33.110Z,18.55
2017-07-09T15:59:38.498Z,18.65
2017-07-09T16:00:41.216Z,18.72
2017-07-09T16:01:44.051Z,18.32
2017-07-09T16:02:46.983Z,18.20
2017-07-09T16:03:49.881Z,17.79
2017-07-09T16:04:52.873Z,17.64
2017-07-09T16:05:58.905Z,17.59
2017-07-09T16:07:01.919Z,17.01
2017-07-09T16:08:04.841Z,16.28
2017-07-09T16:09:07.394Z,15.90
2017-07-09T16:10:09.959Z,15.51
2017-07-09T16:11:12.724Z,15.13
2017-07-09T16:12:15.632Z,14.89
2017-07-09T16:13:18.405Z,14.75
2017-07-09T16:14:21.297Z,14.54
2017-07-09T16:15:24.250Z,14.73
2017-07-09T16:16:27.745Z,14.70
2017-07-09T16:17:30.420Z,14.78
2017-07-09T16:18:32.997Z,14.68
2017-07-09T16:19:36.595Z,14.61
2017-07-09T16:20:39.257Z,14.36
2017-07-09T16:21:41.917Z,14.32
2017-07-09T16:22:44.554Z,14.17
2017-07-09T16:23:47.171Z,14.12
2017-07-09T16:24:50.490Z,14.06
2017-07-09T16:25:53.098Z,14.02
2017-07-09T16:26:55.862Z,14.06
2017-07-09T16:27:59.678Z,14.12
2017-07-09T16:29:02.262Z,14.07
2017-07-09T16:30:04.918Z,14.04
2017-07-09T16:31:07.524Z,14.17
2017-07-09T16:32:10.408Z,14.04
2017-07-09T16:33:13.453Z,13.99
2017-07-09T16:34:17.339Z,13.92
2017-07-09T16:35:20.197Z,13.99
2017-07-09T16:36:23.157Z,14.12
2017-07-09T16:37:26.112Z,14.18
2017-07-09T16:38:29.096Z,14.39
2017-07-09T16:39:31.995Z,14.57
2017-07-09T16:40:34.785Z,14.42
2017-07-09T16:41:37.440Z,14.68
2017-07-09T16:42:40.040Z,14.69
2017-07-09T16:43:42.706Z,14.89
2017-07-09T16:44:45.463Z,14.69
2017-07-09T16:45:48.022Z,14.51
2017-07-09T16:46:50.571Z,14.20
2017-07-09T16:47:53.094Z,13.97
2017-07-09T16:48:55.673Z,13.78
2017-07-09T16:49:58.433Z,13.62
2017-07-09T16:51:01.343Z,13.44
2017-07-09T16:52:03.905Z,13.33
2017-07-09T16:53:06.574Z,13.30
2017-07-09T16:54:09.545Z,13.20
2017-07-09T16:55:12.389Z,13.08
2017-07-09T16:56:16.041Z,13.15
2017-07-09T16:57:19.781Z,13.33
2017-07-09T16:58:23.329Z,13.42
2017-07-09T16:59:26.850Z,13.38
2017-07-09T17:00:31.549Z,13.49
2017-07-09T17:01:34.373Z,13.73
2017-07-09T17:02:37.207Z,13.78
2017-07-09T17:03:44.161Z,13.77
2017-07-09T17:04:47.917Z,13.88
2017-07-09T17:05:51.968Z,13.81
2017-07-09T17:06:54.799Z,13.79
2017-07-09T17:07:57.702Z,13.57
2017-07-09T17:09:00.319Z,13.57
2017-07-09T17:10:05.288Z,13.48
2017-07-09T17:11:07.902Z,13.49
2017-07-09T17:12:12.973Z,13.52
2017-07-09T17:13:15.083Z,13.57
2017-07-09T17:14:17.754Z,13.62
2017-07-09T17:15:21.592Z,13.64
2017-07-09T17:16:24.163Z,13.52
2017-07-09T17:17:28.209Z,13.57
2017-07-09T17:18:30.803Z,13.42
2017-07-09T17:19:34.272Z,13.23
2017-07-09T17:20:36.921Z,13.08
2017-07-09T17:21:40.090Z,12.97
2017-07-09T17:22:42.800Z,12.74
2017-07-09T17:23:45.659Z,12.60
2017-07-09T17:24:48.529Z,12.49
2017-07-09T17:25:51.509Z,12.37
2017-07-09T17:26:54.337Z,12.19
2017-07-09T17:27:56.936Z,12.23
2017-07-09T17:28:59.646Z,12.28
2017-07-09T17:30:02.350Z,12.37
2017-07-09T17:31:05.292Z,12.32
2017-07-09T17:32:08.549Z,12.39
2017-07-09T17:33:11.522Z,12.37
2017-07-09T17:34:14.301Z,12.35
2017-07-09T17:35:18.536Z,12.37
2017-07-09T17:36:21.362Z,12.37
2017-07-09T17:37:24.298Z,12.32
2017-07-09T17:38:27.300Z,12.38
2017-07-09T17:39:30.239Z,12.37
2017-07-09T17:40:32.890Z,12.27
2017-07-09T17:41:35.682Z,12.23
2017-07-09T17:42:38.298Z,12.12
2017-07-09T17:43:41.004Z,12.24
2017-07-09T17:44:43.814Z,12.20
2017-07-09T17:45:46.665Z,12.28
2017-07-09T17:46:49.542Z,12.29
2017-07-09T17:47:53.467Z,12.14
2017-07-09T17:48:56.047Z,11.91
2017-07-09T17:49:58.573Z,11.82
2017-07-09T17:51:01.162Z,11.73
2017-07-09T17:52:03.705Z,11.70
2017-07-09T17:53:06.392Z,11.51
2017-07-09T17:54:09.279Z,11.29
2017-07-09T17:55:13.875Z,11.15
2017-07-09T17:56:22.040Z,10.94
2017-07-09T17:57:24.796Z,10.81
2017-07-09T17:58:27.560Z,10.68
2017-07-09T17:59:33.660Z,10.61
2017-07-09T18:00:38.141Z,10.52
2017-07-09T18:01:43.933Z,10.51
2017-07-09T18:02:48.084Z,10.44
2017-07-09T18:03:50.739Z,10.23
2017-07-09T18:04:53.542Z,10.23
2017-07-09T18:05:56.346Z,10.08
2017-07-09T18:06:59.160Z,10.08
2017-07-09T18:08:01.915Z,10.08
2017-07-09T18:09:04.842Z,9.93